Time;durP1;ratioP1;P1;durP2;ratioP2;P2;SDS_P1;SDS_P2;PMS_P1;PMS_P2;Temp;Humidity;BMP_temperature;BMP_pressure;BME280_temperature;BME280_humidity;BME280_pressure;Samples;Min_cycle;Max_cycle;Signal;HPM_P1;HPM_P2
2022/06/23 00:01:53;;;;;;;14.98;6.60;;;13.80;99.90;;;;;;5038240;28;20540;-76
2022/06/23 00:04:23;;;;;;;19.88;7.72;;;13.80;99.90;;;;;;5056015;28;20045;-76
2022/06/23 00:06:55;;;;;;;20.38;8.60;;;13.70;99.90;;;;;;5038223;28;20047;-76
2022/06/23 00:09:40;;;;;;;16.45;7.65;;;13.70;99.90;;;;;;5055837;28;20106;-76
2022/06/23 00:12:18;;;;;;;19.38;8.25;;;13.70;99.90;;;;;;5038116;28;20041;-76
2022/06/23 00:14:50;;;;;;;17.50;7.88;;;13.70;99.90;;;;;;5038169;28;20480;-76
2022/06/23 00:17:33;;;;;;;20.57;8.40;;;13.70;99.90;;;;;;5037867;28;20124;-76
2022/06/23 00:20:03;;;;;;;18.08;9.60;;;13.70;99.90;;;;;;5037811;28;20363;-76
2022/06/23 00:22:32;;;;;;;21.83;8.52;;;13.60;99.90;;;;;;5055544;28;20094;-76
2022/06/23 00:25:02;;;;;;;21.45;9.27;;;13.60;99.90;;;;;;5037788;28;20075;-76
2022/06/23 00:27:35;;;;;;;21.02;9.20;;;13.60;99.90;;;;;;5037572;28;20170;-76
2022/06/23 00:30:24;;;;;;;23.52;10.02;;;13.60;99.90;;;;;;5055258;28;20102;-76
2022/06/23 00:32:50;;;;;;;22.50;9.57;;;13.60;99.90;;;;;;5037814;28;20104;-76
2022/06/23 00:35:18;;;;;;;23.17;10.05;;;13.60;99.90;;;;;;5037556;28;20546;-76
2022/06/23 00:37:49;;;;;;;22.60;10.00;;;13.60;99.90;;;;;;5055147;28;20121;-76
2022/06/23 00:40:20;;;;;;;19.58;9.25;;;13.60;99.90;;;;;;5055189;28;20052;-76
2022/06/23 00:42:58;;;;;;;23.67;10.57;;;13.60;99.90;;;;;;5037161;28;20052;-76
2022/06/23 00:45:42;;;;;;;21.85;10.38;;;13.60;99.90;;;;;;5054562;28;20092;-76
2022/06/23 00:48:34;;;;;;;23.75;10.63;;;13.50;99.90;;;;;;5055065;28;20081;-76
2022/06/23 00:51:06;;;;;;;28.15;10.55;;;13.50;99.90;;;;;;5054851;28;20083;-76
2022/06/23 00:53:43;;;;;;;26.52;10.35;;;13.60;99.90;;;;;;5054768;28;20112;-76
2022/06/23 00:56:32;;;;;;;21.92;9.32;;;13.60;99.90;;;;;;5036954;28;20041;-76
2022/06/23 00:59:06;;;;;;;24.25;9.68;;;13.50;99.90;;;;;;5054843;28;20084;-76
2022/06/23 01:01:42;;;;;;;21.85;9.25;;;13.50;99.90;;;;;;5054873;28;20132;-76
2022/06/23 01:04:17;;;;;;;19.67;8.35;;;13.50;99.90;;;;;;5037137;28;20045;-76
2022/06/23 01:06:56;;;;;;;22.42;9.60;;;13.50;99.90;;;;;;5054634;28;20045;-76
2022/06/23 01:09:37;;;;;;;22.83;9.30;;;13.40;99.90;;;;;;5054413;28;20041;-76
2022/06/23 01:12:20;;;;;;;23.42;9.88;;;13.50;99.90;;;;;;5036551;28;20056;-76
2022/06/23 01:14:55;;;;;;;20.38;8.73;;;13.50;99.90;;;;;;5036672;28;20041;-76
2022/06/23 01:18:00;;;;;;;25.42;10.05;;;13.50;99.90;;;;;;5036674;28;20045;-76
2022/06/23 01:20:35;;;;;;;27.38;9.88;;;13.40;99.90;;;;;;5054449;28;20041;-76
2022/06/23 01:23:28;;;;;;;28.30;11.55;;;13.40;99.90;;;;;;5036616;28;20059;-76
2022/06/23 01:26:18;;;;;;;33.15;12.82;;;13.40;99.90;;;;;;5036421;28;20461;-76
2022/06/23 01:28:44;;;;;;;33.00;11.68;;;13.40;99.90;;;;;;5036459;28;20052;-76
2022/06/23 01:31:24;;;;;;;38.80;12.85;;;13.40;99.90;;;;;;5036276;28;20446;-76
2022/06/23 01:34:04;;;;;;;31.02;11.88;;;13.30;99.90;;;;;;5054744;28;20481;-76
2022/06/23 01:36:34;;;;;;;29.80;10.27;;;13.30;99.90;;;;;;5054325;28;20045;-76
2022/06/23 01:39:24;;;;;;;27.33;11.20;;;13.30;99.90;;;;;;5036240;28;20068;-76
2022/06/23 01:42:12;;;;;;;31.48;11.55;;;13.30;99.90;;;;;;5036313;28;20041;-76
2022/06/23 01:44:46;;;;;;;27.67;11.63;;;13.30;99.90;;;;;;5023889;28;20055;-76
2022/06/23 01:47:27;;;;;;;26.05;10.75;;;13.30;99.90;;;;;;5036246;28;20048;-76
2022/06/23 01:50:00;;;;;;;27.90;11.35;;;13.30;99.90;;;;;;5054125;28;20048;-76
2022/06/23 01:52:26;;;;;;;28.67;12.60;;;13.20;99.90;;;;;;5036138;28;20392;-76
2022/06/23 01:54:57;;;;;;;29.70;11.98;;;13.20;99.90;;;;;;5036145;28;20532;-76
2022/06/23 01:58:02;;;;;;;29.15;11.25;;;13.20;99.90;;;;;;5035387;28;20048;-76
2022/06/23 02:00:28;;;;;;;28.02;11.60;;;13.10;99.90;;;;;;5044872;28;20057;-76
2022/06/23 02:03:09;;;;;;;29.35;10.75;;;13.10;99.90;;;;;;5035826;28;20048;-76
2022/06/23 02:05:38;;;;;;;28.80;11.95;;;13.10;99.90;;;;;;5035873;28;20041;-76
2022/06/23 02:08:25;;;;;;;31.30;11.50;;;13.10;99.90;;;;;;5053659;28;20092;-76
2022/06/23 02:11:02;;;;;;;31.83;11.85;;;13.10;99.90;;;;;;5053753;28;20373;-76
2022/06/23 02:13:47;;;;;;;32.90;12.38;;;13.10;99.90;;;;;;5053506;28;20045;-76
2022/06/23 02:16:26;;;;;;;29.17;11.63;;;13.10;99.90;;;;;;5035821;28;20163;-76
2022/06/23 02:19:24;;;;;;;34.85;12.13;;;13.10;99.90;;;;;;5035921;28;20401;-76
2022/06/23 02:22:00;;;;;;;38.08;13.25;;;13.10;99.90;;;;;;5053592;28;20524;-76
2022/06/23 02:24:37;;;;;;;38.40;13.48;;;13.00;99.90;;;;;;5053608;28;20090;-76
2022/06/23 02:27:21;;;;;;;36.35;12.68;;;13.10;99.90;;;;;;5053586;28;20126;-76
2022/06/23 02:30:00;;;;;;;35.05;13.93;;;13.10;99.90;;;;;;5035979;28;20051;-76
2022/06/23 02:32:53;;;;;;;35.65;13.30;;;13.10;99.90;;;;;;5053482;28;20113;-76
2022/06/23 02:35:34;;;;;;;33.25;13.35;;;13.10;99.90;;;;;;5053356;28;20048;-76
2022/06/23 02:38:12;;;;;;;38.15;13.23;;;13.00;99.90;;;;;;5035812;28;20439;-76
2022/06/23 02:40:51;;;;;;;38.40;13.68;;;13.10;99.90;;;;;;5053393;28;20206;-76
2022/06/23 02:43:36;;;;;;;34.67;12.93;;;13.10;99.90;;;;;;5053014;28;20477;-76
2022/06/23 02:46:18;;;;;;;37.95;13.95;;;13.00;99.90;;;;;;5035439;28;20055;-76
2022/06/23 02:48:52;;;;;;;34.28;13.05;;;13.00;99.90;;;;;;5053316;28;20476;-76
2022/06/23 02:51:28;;;;;;;37.78;13.63;;;13.00;99.90;;;;;;5054160;28;20087;-76
2022/06/23 02:54:12;;;;;;;39.88;13.43;;;13.00;99.90;;;;;;5053087;28;20433;-76
2022/06/23 02:57:07;;;;;;;36.38;13.70;;;13.00;99.90;;;;;;5053054;28;20064;-76
2022/06/23 02:59:45;;;;;;;39.60;13.00;;;13.00;99.90;;;;;;5053090;28;20170;-76
2022/06/23 03:02:26;;;;;;;42.00;15.00;;;13.00;99.90;;;;;;5034691;28;20108;-76
2022/06/23 03:04:57;;;;;;;41.95;13.65;;;12.90;99.90;;;;;;5034718;28;20037;-76
2022/06/23 03:07:41;;;;;;;38.95;14.43;;;12.90;99.90;;;;;;5033990;28;20485;-76
2022/06/23 03:10:30;;;;;;;41.05;14.18;;;13.00;99.90;;;;;;5038796;28;20056;-76
2022/06/23 03:13:08;;;;;;;41.15;14.88;;;12.90;99.90;;;;;;5056681;28;20135;-76
2022/06/23 03:15:55;;;;;;;38.13;13.15;;;12.90;99.90;;;;;;5038815;28;20464;-76
2022/06/23 03:18:23;;;;;;;36.40;13.48;;;12.90;99.90;;;;;;5038916;28;20095;-76
2022/06/23 03:20:58;;;;;;;36.03;12.98;;;12.90;99.90;;;;;;5038878;28;20447;-76
2022/06/23 03:23:33;;;;;;;38.92;13.70;;;12.90;99.90;;;;;;5038784;28;20080;-76
2022/06/23 03:26:13;;;;;;;37.15;13.15;;;12.90;99.90;;;;;;5056739;28;20041;-76
2022/06/23 03:29:06;;;;;;;39.47;15.93;;;12.90;99.90;;;;;;5038754;28;20051;-76
2022/06/23 03:31:43;;;;;;;40.58;14.75;;;12.90;99.90;;;;;;5038446;28;20053;-76
2022/06/23 03:34:35;;;;;;;40.83;13.68;;;12.80;99.90;;;;;;5038740;28;20092;-76
2022/06/23 03:37:26;;;;;;;42.20;13.93;;;12.80;99.90;;;;;;5032115;28;20064;-76
2022/06/23 03:43:31;;;;;;;42.08;15.10;;;12.80;99.90;;;;;;5038218;28;20045;-76
2022/06/23 03:46:11;;;;;;;37.05;13.10;;;12.70;99.90;;;;;;5038553;28;20049;-76
2022/06/23 03:48:42;;;;;;;40.33;14.02;;;12.70;99.90;;;;;;5038437;28;20047;-76
2022/06/23 03:51:23;;;;;;;40.28;13.85;;;12.70;99.90;;;;;;5055946;28;20087;-76
2022/06/23 03:54:11;;;;;;;42.65;14.07;;;12.70;99.90;;;;;;5038101;28;20041;-76
2022/06/23 03:56:49;;;;;;;41.55;13.02;;;12.70;99.90;;;;;;5056189;28;20041;-76
2022/06/23 03:59:25;;;;;;;35.55;12.77;;;12.80;99.90;;;;;;5038109;28;20079;-76
2022/06/23 04:02:02;;;;;;;40.28;14.00;;;12.80;99.90;;;;;;5055789;28;20416;-76
2022/06/23 04:04:50;;;;;;;38.67;12.57;;;12.80;99.90;;;;;;5038175;28;20460;-76
2022/06/23 04:07:27;;;;;;;44.67;14.43;;;12.80;99.90;;;;;;5037865;28;20053;-76
2022/06/23 04:09:59;;;;;;;40.10;13.63;;;12.90;99.90;;;;;;5055705;28;20118;-76
2022/06/23 04:12:25;;;;;;;39.92;14.35;;;13.00;99.90;;;;;;5037938;28;20473;-76
2022/06/23 04:15:23;;;;;;;38.67;14.25;;;13.10;99.90;;;;;;5055847;28;20040;-76
2022/06/23 04:17:54;;;;;;;39.30;14.35;;;13.20;99.90;;;;;;5051259;28;20061;-76
2022/06/23 04:20:47;;;;;;;37.83;12.95;;;13.30;99.90;;;;;;5036828;28;20044;-76
2022/06/23 04:23:26;;;;;;;41.10;13.90;;;13.30;99.90;;;;;;5055770;28;20037;-76
2022/06/23 04:25:59;;;;;;;40.97;14.27;;;13.40;99.90;;;;;;5055424;28;20060;-76
2022/06/23 04:28:30;;;;;;;;;;;13.50;99.90;;;;;;5037919;28;20072;-76
2022/06/23 04:31:00;;;;;;;37.33;13.60;;;13.60;99.90;;;;;;5037466;28;19921;-76
2022/06/23 04:33:27;;;;;;;40.05;13.60;;;13.70;99.90;;;;;;5037571;28;20041;-76
2022/06/23 04:36:00;;;;;;;36.33;13.27;;;13.80;99.90;;;;;;5037222;28;20041;-76
2022/06/23 04:38:43;;;;;;;36.22;13.48;;;14.00;99.90;;;;;;5037664;28;20044;-76
2022/06/23 04:41:21;;;;;;;38.25;14.05;;;14.00;99.90;;;;;;5037294;28;20052;-76
2022/06/23 04:44:02;;;;;;;40.45;14.88;;;14.20;99.90;;;;;;5036987;28;20049;-76
2022/06/23 04:46:41;;;;;;;34.75;13.27;;;14.40;99.90;;;;;;5037168;28;20056;-76
2022/06/23 04:49:24;;;;;;;41.42;14.15;;;14.50;99.90;;;;;;5037385;28;20080;-76
2022/06/23 04:51:52;;;;;;;;;;;14.60;99.90;;;;;;5037360;28;20047;-76
2022/06/23 04:54:29;;;;;;;36.05;12.75;;;14.70;99.90;;;;;;5036991;28;19925;-76
2022/06/23 04:57:12;;;;;;;32.50;13.02;;;14.80;99.90;;;;;;5037191;28;20033;-76
2022/06/23 04:59:52;;;;;;;36.47;13.18;;;15.00;99.90;;;;;;5054987;28;20080;-76
2022/06/23 05:02:29;;;;;;;39.72;14.13;;;15.10;99.90;;;;;;5054517;28;20048;-76
2022/06/23 05:05:09;;;;;;;37.35;14.10;;;15.00;99.90;;;;;;5054834;28;20037;-76
2022/06/23 05:07:46;;;;;;;38.97;13.52;;;15.20;99.90;;;;;;5054587;28;20511;-76
2022/06/23 05:10:37;;;;;;;36.20;12.13;;;15.30;99.90;;;;;;5054391;28;20527;-76
2022/06/23 05:13:08;;;;;;;32.75;13.13;;;15.40;99.90;;;;;;5054723;28;20124;-76
2022/06/23 05:15:43;;;;;;;36.65;12.60;;;15.60;99.90;;;;;;5036985;28;20511;-76
2022/06/23 05:18:17;;;;;;;31.75;12.77;;;15.80;99.90;;;;;;5036680;28;20447;-76
2022/06/23 05:21:04;;;;;;;34.17;13.20;;;15.90;99.90;;;;;;5054308;28;20037;-76
2022/06/23 05:23:54;;;;;;;29.60;12.88;;;16.00;99.90;;;;;;5036392;28;20051;-76
2022/06/23 05:26:31;;;;;;;34.50;12.95;;;16.10;99.90;;;;;;5054511;28;20056;-76
2022/06/23 05:29:03;;;;;;;32.03;11.90;;;16.30;99.90;;;;;;5054103;28;20389;-76
2022/06/23 05:31:33;;;;;;;34.45;14.13;;;16.40;99.90;;;;;;5054010;28;20098;-76
2022/06/23 05:34:14;;;;;;;33.03;12.48;;;16.50;99.90;;;;;;5054321;28;20082;-76
2022/06/23 05:36:56;;;;;;;32.70;12.30;;;16.60;99.90;;;;;;5054024;28;20484;-76
2022/06/23 05:39:30;;;;;;;31.92;11.73;;;16.70;99.90;;;;;;5054121;28;20110;-76
2022/06/23 05:41:59;;;;;;;28.33;11.75;;;16.90;99.90;;;;;;5054097;28;20087;-76
2022/06/23 05:44:40;;;;;;;29.63;12.45;;;16.90;99.90;;;;;;5053964;28;20052;-76
2022/06/23 05:47:11;;;;;;;26.55;11.60;;;16.80;99.90;;;;;;5053938;28;20052;-76
2022/06/23 05:49:43;;;;;;;28.83;11.73;;;17.00;99.90;;;;;;5036054;28;20076;-76
2022/06/23 05:52:17;;;;;;;28.25;11.90;;;16.80;99.90;;;;;;5035821;28;20060;-76
2022/06/23 05:54:55;;;;;;;31.83;13.57;;;17.10;99.90;;;;;;5035873;28;20049;-76
2022/06/23 05:57:35;;;;;;;31.33;12.45;;;17.20;99.90;;;;;;5053775;28;20052;-76
2022/06/23 06:00:30;;;;;;;28.13;11.73;;;17.30;99.90;;;;;;5035874;28;20045;-76
2022/06/23 06:03:33;;;;;;;31.00;12.55;;;17.30;99.90;;;;;;5053980;28;20068;-76
2022/06/23 06:06:01;;;;;;;25.90;11.73;;;17.40;99.90;;;;;;5051866;28;20061;-77
2022/06/23 06:11:30;;;;;;;25.73;11.13;;;17.70;99.90;;;;;;5053660;28;20068;-76
2022/06/23 06:13:56;;;;;;;26.05;11.50;;;17.90;99.90;;;;;;5053484;28;20041;-76
2022/06/23 06:16:22;;;;;;;25.00;10.73;;;18.00;99.90;;;;;;5035540;28;20037;-76
2022/06/23 06:18:48;;;;;;;25.75;11.55;;;18.10;99.90;;;;;;5035679;28;20095;-76
2022/06/23 06:21:17;;;;;;;22.65;10.63;;;18.30;99.90;;;;;;5053614;28;20041;-76
2022/06/23 06:23:49;;;;;;;29.38;12.68;;;18.30;99.90;;;;;;5053597;28;20076;-76
2022/06/23 06:26:18;;;;;;;27.35;12.93;;;18.60;99.90;;;;;;5035478;28;20106;-77
2022/06/23 06:28:44;;;;;;;26.27;13.40;;;18.50;99.90;;;;;;5035370;28;20033;-77
2022/06/23 06:31:32;;;;;;;28.13;13.05;;;18.40;99.90;;;;;;5035549;28;20040;-77
2022/06/23 06:34:10;;;;;;;27.38;12.60;;;18.70;99.90;;;;;;5053261;28;20483;-77
2022/06/23 06:36:41;;;;;;;30.15;14.00;;;18.70;99.90;;;;;;5053504;28;20037;-77
2022/06/23 06:39:14;;;;;;;24.13;13.10;;;18.70;99.90;;;;;;5035662;28;20056;-77
2022/06/23 06:41:46;;;;;;;28.95;14.10;;;18.70;99.90;;;;;;5035534;28;20522;-76
2022/06/23 06:44:15;;;;;;;28.17;14.30;;;18.90;99.90;;;;;;5055576;28;20124;-76
2022/06/23 06:46:42;;;;;;;25.67;14.48;;;18.90;99.90;;;;;;5039397;28;20092;-76
2022/06/23 06:49:19;;;;;;;25.80;13.23;;;18.90;99.90;;;;;;5057449;28;20045;-76
2022/06/23 06:51:47;;;;;;;26.00;13.75;;;19.30;99.90;;;;;;5057050;28;20496;-77
2022/06/23 06:54:30;;;;;;;28.55;14.27;;;19.50;99.90;;;;;;5039505;28;20094;-76
2022/06/23 06:57:01;;;;;;;25.05;13.80;;;19.80;99.90;;;;;;5039352;28;20057;-77
2022/06/23 06:59:37;;;;;;;24.17;13.15;;;19.80;99.90;;;;;;5039199;28;20040;-77
2022/06/23 07:02:19;;;;;;;27.15;13.45;;;20.00;99.90;;;;;;5057210;28;20045;-77
2022/06/23 07:05:06;;;;;;;28.92;15.48;;;20.10;99.90;;;;;;5057122;28;20056;-77
2022/06/23 07:07:39;;;;;;;27.65;15.95;;;19.70;99.90;;;;;;5056920;28;20060;-76
2022/06/23 07:10:11;;;;;;;23.58;12.85;;;20.10;99.90;;;;;;5056860;28;20048;-77
2022/06/23 07:12:48;;;;;;;30.17;14.87;;;20.40;99.90;;;;;;5039353;28;20094;-76
2022/06/23 07:15:55;;;;;;;27.60;13.95;;;20.60;99.90;;;;;;5057014;28;20045;-77
2022/06/23 07:18:41;;;;;;;23.60;14.38;;;20.60;99.90;;;;;;5026932;28;20497;-77
2022/06/23 07:21:18;;;;;;;25.20;13.38;;;20.80;99.90;;;;;;5042855;28;20041;-76
2022/06/23 07:24:11;;;;;;;24.27;14.23;;;20.50;99.90;;;;;;5043646;28;20036;-76
2022/06/23 07:26:51;;;;;;;20.63;12.77;;;20.70;99.90;;;;;;5038751;28;20487;-76
2022/06/23 07:29:42;;;;;;;23.85;13.43;;;21.10;99.90;;;;;;5038740;28;20140;-76
2022/06/23 07:32:14;;;;;;;24.58;12.98;;;21.30;99.90;;;;;;5038343;28;20041;-76
2022/06/23 07:34:46;;;;;;;;;;;21.30;99.90;;;;;;5039077;28;20055;-76
2022/06/23 07:37:37;;;;;;;22.08;12.05;;;21.60;99.90;;;;;;5038225;28;19931;-76
2022/06/23 07:40:07;;;;;;;21.15;13.25;;;21.90;99.90;;;;;;5038517;28;20052;-76
2022/06/23 07:42:51;;;;;;;26.08;14.43;;;21.80;99.90;;;;;;5055853;28;20480;-76
2022/06/23 07:45:25;;;;;;;22.70;12.82;;;21.90;99.90;;;;;;5038128;28;20053;-77
2022/06/23 07:47:51;;;;;;;21.27;12.77;;;21.80;99.90;;;;;;5038402;28;20052;-77
2022/06/23 07:50:17;;;;;;;23.50;13.75;;;21.90;99.90;;;;;;5056118;28;20511;-77
2022/06/23 07:52:45;;;;;;;20.90;12.15;;;22.00;99.90;;;;;;5038200;28;20049;-76
2022/06/23 07:55:20;;;;;;;19.92;12.70;;;22.40;99.90;;;;;;5036984;28;20091;-77
2022/06/23 07:57:46;;;;;;;22.10;14.02;;;22.40;99.90;;;;;;5056014;28;20036;-77
2022/06/23 08:00:13;;;;;;;20.15;12.95;;;22.60;99.90;;;;;;5055729;28;20403;-77
2022/06/23 08:03:00;;;;;;;23.95;13.60;;;22.60;99.90;;;;;;5038082;28;20049;-77
2022/06/23 08:05:33;;;;;;;23.73;14.25;;;22.80;99.90;;;;;;5037787;28;20053;-77
2022/06/23 08:07:58;;;;;;;24.48;13.10;;;23.00;99.90;;;;;;5055894;28;20037;-78
2022/06/23 08:10:27;;;;;;;21.42;14.05;;;23.20;99.90;;;;;;5037437;28;20098;-77
2022/06/23 08:13:09;;;;;;;24.20;14.65;;;23.30;99.90;;;;;;5060944;28;20059;-77
2022/06/23 08:18:52;;;;;;;20.90;13.55;;;23.40;99.90;;;;;;5075637;28;20079;-77
2022/06/23 08:21:28;;;;;;;25.67;14.25;;;23.40;99.90;;;;;;5074378;28;20110;-77
2022/06/23 08:24:15;;;;;;;23.67;14.20;;;23.10;99.90;;;;;;5074053;28;20055;-77
2022/06/23 08:26:49;;;;;;;21.67;12.85;;;23.40;99.90;;;;;;5075357;28;20492;-78
2022/06/23 08:29:19;;;;;;;23.85;13.90;;;23.40;99.90;;;;;;5075250;28;20131;-78
2022/06/23 08:31:46;;;;;;;20.88;13.55;;;23.60;99.90;;;;;;5075141;28;20045;-78
2022/06/23 08:34:11;;;;;;;26.75;15.50;;;23.60;99.90;;;;;;5075369;28;20115;-78
2022/06/23 08:36:54;;;;;;;21.52;13.68;;;23.90;99.90;;;;;;5075384;28;20127;-78
2022/06/23 08:39:34;;;;;;;23.92;15.07;;;23.80;99.90;;;;;;5074085;28;20048;-78
2022/06/23 08:42:22;;;;;;;22.48;14.38;;;23.70;99.90;;;;;;5069797;28;20044;-78
2022/06/23 08:45:21;;;;;;;25.42;14.27;;;23.90;99.90;;;;;;5061534;28;20389;-77
2022/06/23 08:48:01;;;;;;;25.92;14.55;;;24.20;99.90;;;;;;5074998;28;20075;-77
2022/06/23 08:50:38;;;;;;;20.52;14.23;;;24.20;99.90;;;;;;5074815;28;20056;-77
2022/06/23 08:53:33;;;;;;;23.45;14.80;;;24.40;99.90;;;;;;5074068;28;20082;-78
2022/06/23 08:56:11;;;;;;;19.38;13.88;;;24.50;99.90;;;;;;5073634;28;20050;-78
2022/06/23 08:59:06;;;;;;;25.23;16.00;;;24.40;99.90;;;;;;5074930;28;20044;-78
2022/06/23 09:01:45;;;;;;;24.83;14.43;;;24.50;99.90;;;;;;5073621;28;20476;-78
2022/06/23 09:04:38;;;;;;;21.80;13.73;;;24.60;99.90;;;;;;5073287;28;20102;-78
2022/06/23 09:07:17;;;;;;;21.60;12.82;;;24.60;99.90;;;;;;5073200;28;20048;-78
2022/06/23 09:09:54;;;;;;;20.92;13.63;;;24.70;99.90;;;;;;5073199;28;20048;-77
2022/06/23 09:12:38;;;;;;;19.50;12.88;;;24.60;99.90;;;;;;5073845;28;20060;-78
2022/06/23 09:15:15;;;;;;;20.02;12.02;;;24.60;99.90;;;;;;5074207;28;20373;-77
2022/06/23 09:17:51;;;;;;;21.98;14.57;;;25.00;99.90;;;;;;5074384;28;20040;-78
2022/06/23 09:20:54;;;;;;;21.45;11.90;;;24.80;99.90;;;;;;5074177;28;20062;-78
2022/06/23 09:23:57;;;;;;;19.63;11.48;;;24.60;99.90;;;;;;5073567;28;20060;-77
2022/06/23 09:26:32;;;;;;;18.67;11.80;;;24.90;99.90;;;;;;5073760;28;20052;-77
2022/06/23 09:29:09;;;;;;;21.83;11.40;;;25.20;99.90;;;;;;5062950;28;20571;-78
2022/06/23 09:31:38;;;;;;;19.23;12.75;;;25.10;99.90;;;;;;5045766;28;20041;-78
2022/06/23 09:34:39;;;;;;;16.55;10.35;;;25.10;99.90;;;;;;5044706;28;20049;-78
2022/06/23 09:37:21;;;;;;;17.33;10.82;;;25.30;99.90;;;;;;5041309;28;20044;-78
2022/06/23 09:40:17;;;;;;;14.30;9.93;;;25.30;99.90;;;;;;5045058;28;20043;-78
2022/06/23 09:42:58;;;;;;;18.27;10.75;;;25.40;99.90;;;;;;5069102;28;20488;-78
2022/06/23 09:45:42;;;;;;;18.50;11.40;;;26.00;99.90;;;;;;5070965;28;20084;-78
2022/06/23 09:48:23;;;;;;;16.17;10.50;;;25.60;99.90;;;;;;5073732;28;20480;-77
2022/06/23 09:51:19;;;;;;;15.93;10.93;;;25.80;99.90;;;;;;5072628;28;20041;-77
2022/06/23 09:54:06;;;;;;;16.58;11.07;;;26.10;99.90;;;;;;5071990;28;20058;-77
2022/06/23 09:57:05;;;;;;;25.23;10.90;;;26.20;99.90;;;;;;5073864;28;20041;-77
2022/06/23 10:00:06;;;;;;;16.23;10.32;;;26.30;99.90;;;;;;5072262;28;20048;-77
2022/06/23 10:02:52;;;;;;;13.15;9.25;;;26.10;99.90;;;;;;5072428;28;20033;-79
2022/06/23 10:05:41;;;;;;;15.43;10.70;;;26.40;99.90;;;;;;5066816;28;20496;-78
2022/06/23 10:08:19;;;;;;;20.02;11.45;;;26.50;99.90;;;;;;5054039;28;20081;-77
2022/06/23 10:11:13;;;;;;;19.35;11.25;;;26.80;99.90;;;;;;5035468;28;20172;-77
2022/06/23 10:14:00;;;;;;;17.83;11.40;;;26.80;99.90;;;;;;5049715;28;20041;-78
2022/06/23 10:16:47;;;;;;;20.45;13.02;;;26.30;99.90;;;;;;5071840;28;20102;-77
2022/06/23 10:19:21;;;;;;;15.27;11.27;;;26.30;99.90;;;;;;5052762;28;20056;-77
2022/06/23 10:22:12;;;;;;;15.80;11.02;;;26.40;99.90;;;;;;5053282;28;20116;-78
2022/06/23 10:24:59;;;;;;;21.15;12.52;;;26.70;99.90;;;;;;5066495;28;20059;-77
2022/06/23 10:27:43;;;;;;;18.67;11.35;;;26.40;99.90;;;;;;5063426;28;20518;-78
2022/06/23 10:30:46;;;;;;;19.90;11.70;;;26.10;99.90;;;;;;5073172;28;20060;-77
2022/06/23 10:33:21;;;;;;;16.35;10.20;;;26.10;99.90;;;;;;5073049;28;20049;-78
2022/06/23 10:36:07;;;;;;;15.10;10.95;;;26.50;99.90;;;;;;5072980;28;20040;-78
2022/06/23 10:38:57;;;;;;;16.25;9.55;;;26.70;99.90;;;;;;5055135;28;20407;-78
2022/06/23 10:41:32;;;;;;;14.63;8.52;;;27.00;99.90;;;;;;5073065;28;20051;-78
2022/06/23 10:44:10;;;;;;;13.98;8.82;;;27.20;99.90;;;;;;5072619;28;20098;-78
2022/06/23 10:46:57;;;;;;;13.30;9.25;;;27.40;99.90;;;;;;5066369;28;20041;-78
2022/06/23 10:49:44;;;;;;;16.50;9.82;;;27.60;99.90;;;;;;5063127;28;20480;-78
2022/06/23 10:52:23;;;;;;;13.13;6.68;;;27.80;99.90;;;;;;5072739;28;20492;-78
2022/06/23 10:55:00;;;;;;;12.77;8.60;;;28.00;99.90;;;;;;5072642;28;20064;-78
2022/06/23 10:58:02;;;;;;;13.63;7.28;;;28.00;99.90;;;;;;5053020;28;20049;-78
2022/06/23 11:01:19;;;;;;;13.70;8.77;;;28.20;99.90;;;;;;5034885;28;20045;-78
2022/06/23 11:04:13;;;;;;;12.10;7.47;;;28.40;99.90;;;;;;5052052;28;20049;-78
2022/06/23 11:07:07;;;;;;;12.73;9.40;;;28.60;99.90;;;;;;5069926;28;20045;-78
2022/06/23 11:09:52;;;;;;;15.88;8.63;;;28.40;99.90;;;;;;5072723;28;20483;-79
2022/06/23 11:12:58;;;;;;;12.15;8.80;;;28.20;99.90;;;;;;5071454;28;20048;-78
2022/06/23 11:15:49;;;;;;;15.00;7.25;;;28.30;99.90;;;;;;5041466;28;20059;-79
2022/06/23 11:18:26;;;;;;;9.30;6.82;;;28.40;99.90;;;;;;5072744;28;20175;-78
2022/06/23 11:21:15;;;;;;;10.70;6.97;;;28.50;99.90;;;;;;5069749;28;20053;-78
2022/06/23 11:23:58;;;;;;;10.85;7.53;;;28.40;99.90;;;;;;5071299;28;20131;-78
2022/06/23 11:26:41;;;;;;;11.38;6.20;;;28.50;97.30;;;;;;5072209;28;20083;-78
2022/06/23 11:29:45;;;;;;;15.93;7.93;;;28.80;99.80;;;;;;5062592;28;20094;-78
2022/06/23 11:32:32;;;;;;;10.95;6.95;;;28.30;99.90;;;;;;5059511;28;20488;-78
2022/06/23 11:35:01;;;;;;;18.00;7.32;;;28.20;99.90;;;;;;5076246;28;20083;-78
2022/06/23 11:37:30;;;;;;;11.27;6.38;;;28.20;99.90;;;;;;5076117;28;20047;-78
2022/06/23 11:40:10;;;;;;;9.98;6.57;;;28.50;99.90;;;;;;5058061;28;20404;-78
2022/06/23 11:43:10;;;;;;;10.40;6.20;;;28.60;99.90;;;;;;5076589;28;20044;-78
2022/06/23 11:45:48;;;;;;;9.23;6.20;;;28.80;96.60;;;;;;5075785;28;20049;-78
2022/06/23 11:48:39;;;;;;;8.25;5.45;;;28.80;95.20;;;;;;5075848;28;20448;-77
2022/06/23 11:51:25;;;;;;;13.20;6.27;;;28.90;96.50;;;;;;5044816;28;20052;-78
2022/06/23 11:54:26;;;;;;;11.38;5.63;;;29.20;96.90;;;;;;5058209;28;20306;-78
2022/06/23 11:57:17;;;;;;;13.45;6.70;;;29.10;94.90;;;;;;5030986;28;20466;-78
2022/06/23 12:00:07;;;;;;;11.93;6.40;;;29.10;91.20;;;;;;5075637;28;20047;-78
2022/06/23 12:02:49;;;;;;;7.88;5.53;;;29.10;94.20;;;;;;5075546;28;20036;-77
2022/06/23 12:05:30;;;;;;;6.85;5.75;;;29.20;93.60;;;;;;5059442;28;20048;-77
2022/06/23 12:08:01;;;;;;;10.32;5.90;;;29.30;93.40;;;;;;5075769;28;20046;-78
2022/06/23 12:10:30;;;;;;;9.02;5.50;;;29.10;92.30;;;;;;5059257;28;20044;-78
2022/06/23 12:13:01;;;;;;;14.15;6.30;;;29.20;93.30;;;;;;5067448;28;20044;-78
2022/06/23 12:15:33;;;;;;;8.68;5.53;;;28.70;90.30;;;;;;5075660;28;20045;-78
2022/06/23 12:18:10;;;;;;;10.65;5.68;;;28.80;96.40;;;;;;5061467;28;20531;-78
2022/06/23 12:21:01;;;;;;;8.07;5.75;;;28.90;94.90;;;;;;5057588;28;20392;-79
2022/06/23 12:23:50;;;;;;;10.55;6.22;;;29.20;95.60;;;;;;5075300;28;20045;-78
2022/06/23 12:26:33;;;;;;;10.85;5.97;;;29.50;97.00;;;;;;5075476;28;20043;-78
2022/06/23 12:29:18;;;;;;;9.77;5.90;;;29.50;94.90;;;;;;5057304;28;20053;-79
2022/06/23 12:32:03;;;;;;;7.93;6.03;;;29.50;97.00;;;;;;5059597;28;20396;-79
2022/06/23 12:34:56;;;;;;;10.07;5.65;;;29.50;94.50;;;;;;5065667;28;20045;-78
2022/06/23 12:37:27;;;;;;;9.25;5.90;;;29.70;95.10;;;;;;5057356;28;20059;-78
2022/06/23 12:40:18;;;;;;;10.23;5.97;;;29.60;93.60;;;;;;5074671;28;20479;-78
2022/06/23 12:42:50;;;;;;;9.30;5.82;;;29.60;94.10;;;;;;5053414;28;20049;-78
2022/06/23 12:45:38;;;;;;;11.35;6.45;;;29.80;94.60;;;;;;5065146;28;20500;-78
2022/06/23 12:48:19;;;;;;;8.73;6.13;;;29.60;92.50;;;;;;5073579;28;20404;-78
2022/06/23 12:51:16;;;;;;;10.50;5.78;;;29.50;91.10;;;;;;5060856;28;20503;-78
2022/06/23 12:54:19;;;;;;;9.82;6.43;;;29.80;95.20;;;;;;5068439;28;20113;-79
2022/06/23 12:57:13;;;;;;;11.20;6.50;;;29.70;90.20;;;;;;5056828;28;20479;-79
2022/06/23 12:59:48;;;;;;;8.63;5.53;;;29.60;90.80;;;;;;5074886;28;20055;-78
2022/06/23 13:02:35;;;;;;;9.65;5.72;;;29.80;94.10;;;;;;5074065;28;20033;-78
2022/06/23 13:05:08;;;;;;;9.05;5.80;;;30.00;94.80;;;;;;5074448;28;20124;-75
2022/06/23 13:07:41;;;;;;;10.25;5.72;;;30.10;92.70;;;;;;5059677;28;20078;-76
2022/06/23 13:10:29;;;;;;;8.48;5.72;;;30.20;95.20;;;;;;5074316;28;20094;-76
2022/06/23 13:13:21;;;;;;;6.65;5.55;;;30.30;85.80;;;;;;5074285;28;20051;-76
2022/06/23 13:15:49;;;;;;;;;;;30.20;93.20;;;;;;5056818;28;20059;-77
2022/06/23 13:18:20;;;;;;;12.45;6.35;;;30.30;93.00;;;;;;5072933;28;19970;-76
2022/06/23 13:21:06;;;;;;;10.48;5.97;;;30.50;93.90;;;;;;5072987;28;20564;-76
2022/06/23 13:23:39;;;;;;;8.85;5.40;;;30.60;91.50;;;;;;5072328;28;20109;-77
2022/06/23 13:26:16;;;;;;;9.32;6.15;;;30.70;92.90;;;;;;5074004;28;20048;-76
2022/06/23 13:28:44;;;;;;;9.55;5.68;;;30.60;92.40;;;;;;5074171;28;20044;-76
2022/06/23 13:31:25;;;;;;;10.90;6.35;;;30.60;91.90;;;;;;5055663;28;20442;-76
2022/06/23 13:34:16;;;;;;;9.23;6.28;;;30.50;87.90;;;;;;5073997;28;20078;-77
2022/06/23 13:36:54;;;;;;;7.77;6.33;;;30.50;90.50;;;;;;5036027;28;20041;-76
2022/06/23 13:39:23;;;;;;;7.53;5.80;;;30.60;85.10;;;;;;5057862;28;20340;-76
2022/06/23 13:42:01;;;;;;;10.05;5.45;;;30.70;90.20;;;;;;5071872;28;20365;-78
2022/06/23 13:44:37;;;;;;;9.48;6.10;;;30.50;85.30;;;;;;5073643;28;20049;-78
2022/06/23 13:47:23;;;;;;;8.85;5.70;;;30.40;83.30;;;;;;5072344;28;20483;-77
2022/06/23 13:50:10;;;;;;;10.65;5.70;;;30.50;87.70;;;;;;5068783;28;20151;-78